createdAt,value
2022-09-30T00:00:24.910Z,74.82
2022-09-30T00:02:53.902Z,75.13
2022-09-30T00:05:23.179Z,73.45
2022-09-30T00:07:52.118Z,69.85
2022-09-30T00:10:20.944Z,70.68
2022-09-30T00:12:50.014Z,70.82
2022-09-30T00:15:19.205Z,74.70
2022-09-30T00:17:48.237Z,72.90
2022-09-30T00:20:17.355Z,72.20
2022-09-30T00:22:46.487Z,73.90
2022-09-30T00:25:17.173Z,71.15
2022-09-30T00:27:46.674Z,69.45
2022-09-30T00:30:15.707Z,73.43
2022-09-30T00:32:44.700Z,76.53
2022-09-30T00:35:13.641Z,73.95
2022-09-30T00:37:42.660Z,75.60
2022-09-30T00:40:13.226Z,75.55
2022-09-30T00:42:43.060Z,77.03
2022-09-30T00:45:14.803Z,77.35
2022-09-30T00:47:56.066Z,72.95
2022-09-30T00:50:39.572Z,74.40
2022-09-30T00:53:20.376Z,75.20
2022-09-30T00:56:01.928Z,77.28
2022-09-30T00:58:48.743Z,74.55
2022-09-30T01:01:20.869Z,74.47
2022-09-30T01:03:56.068Z,75.50
2022-09-30T01:06:28.031Z,74.97
2022-09-30T01:08:59.449Z,73.97
2022-09-30T01:11:30.242Z,74.93
2022-09-30T01:14:04.706Z,71.85
2022-09-30T01:17:10.131Z,72.30
2022-09-30T01:20:04.455Z,69.82
2022-09-30T01:22:42.441Z,71.63
2022-09-30T01:25:46.970Z,71.10
2022-09-30T01:28:37.727Z,71.40
2022-09-30T01:31:27.759Z,68.40
2022-09-30T01:34:27.893Z,72.03
2022-09-30T01:37:19.460Z,71.47
2022-09-30T01:40:05.402Z,70.07
2022-09-30T01:42:52.229Z,71.15
2022-09-30T01:45:51.125Z,70.75
2022-09-30T01:48:24.248Z,68.32
2022-09-30T01:51:11.549Z,69.70
2022-09-30T01:53:52.720Z,71.65
2022-09-30T01:56:43.657Z,74.65
2022-09-30T01:59:37.681Z,77.38
2022-09-30T02:02:22.932Z,78.72
2022-09-30T02:05:20.454Z,79.85
2022-09-30T02:08:24.853Z,75.60
2022-09-30T02:11:03.023Z,75.35
2022-09-30T02:13:59.701Z,75.50
2022-09-30T02:16:35.799Z,68.63
2022-09-30T02:19:21.691Z,76.30
2022-09-30T02:22:05.072Z,77.25
2022-09-30T02:24:38.146Z,74.22
2022-09-30T02:27:13.026Z,73.50
2022-09-30T02:29:47.836Z,68.45
2022-09-30T02:32:26.200Z,63.55
2022-09-30T02:35:07.735Z,62.90
2022-09-30T02:37:40.762Z,61.38
2022-09-30T02:40:14.844Z,62.13
2022-09-30T02:42:47.018Z,60.50
2022-09-30T02:45:21.760Z,56.28
2022-09-30T02:48:23.596Z,57.15
2022-09-30T02:51:25.622Z,55.75
2022-09-30T02:54:21.287Z,54.30
2022-09-30T02:57:05.596Z,51.58
2022-09-30T02:59:35.351Z,57.85
2022-09-30T03:02:04.576Z,56.50
2022-09-30T03:04:36.924Z,57.17
2022-09-30T03:07:05.977Z,53.88
2022-09-30T03:09:37.344Z,57.17
2022-09-30T03:12:18.051Z,52.80
2022-09-30T03:15:20.877Z,52.05
2022-09-30T03:18:08.158Z,51.75
2022-09-30T03:20:55.843Z,51.03
2022-09-30T03:23:52.937Z,50.30
2022-09-30T03:26:48.719Z,55.63
2022-09-30T03:29:38.228Z,46.90
2022-09-30T03:32:32.249Z,43.30
2022-09-30T03:35:13.574Z,42.55
2022-09-30T03:38:04.962Z,38.45
2022-09-30T03:40:43.107Z,39.47
2022-09-30T03:43:44.991Z,40.47
2022-09-30T03:46:31.150Z,38.13
2022-09-30T03:49:06.354Z,42.72
2022-09-30T03:51:41.444Z,40.45
2022-09-30T03:54:13.673Z,40.15
2022-09-30T03:56:45.795Z,42.47
2022-09-30T03:59:26.782Z,44.28
2022-09-30T04:01:58.442Z,40.67
2022-09-30T04:04:28.757Z,39.78
2022-09-30T04:06:57.986Z,42.50
2022-09-30T04:09:28.564Z,45.55
2022-09-30T04:11:58.066Z,40.78
2022-09-30T04:14:27.450Z,42.35
2022-09-30T04:16:56.739Z,39.08
2022-09-30T04:19:25.910Z,33.80
2022-09-30T04:21:56.389Z,36.88
2022-09-30T04:24:26.498Z,36.03
2022-09-30T04:26:55.636Z,32.60
2022-09-30T04:29:24.802Z,31.60
2022-09-30T04:31:53.853Z,27.88
2022-09-30T04:34:23.145Z,28.52
2022-09-30T04:36:52.321Z,27.70
2022-09-30T04:39:21.729Z,27.90
2022-09-30T04:41:55.128Z,30.60
2022-09-30T04:44:24.479Z,28.25
2022-09-30T04:46:53.983Z,29.45
2022-09-30T04:49:26.736Z,27.52
2022-09-30T04:51:56.862Z,25.95
2022-09-30T04:54:26.475Z,23.00
2022-09-30T04:56:58.033Z,25.73
2022-09-30T04:59:27.690Z,25.17
2022-09-30T05:01:56.580Z,24.00
2022-09-30T05:04:26.123Z,23.90
2022-09-30T05:06:57.243Z,24.90
2022-09-30T05:09:32.391Z,25.80
2022-09-30T05:12:04.312Z,24.75
2022-09-30T05:14:34.707Z,22.13
2022-09-30T05:17:04.714Z,21.33
2022-09-30T05:19:34.336Z,18.88
2022-09-30T05:22:04.433Z,18.45
2022-09-30T05:24:33.570Z,15.63
2022-09-30T05:27:22.369Z,18.35
2022-09-30T05:29:52.475Z,18.23
2022-09-30T05:32:22.843Z,17.92
2022-09-30T05:34:53.027Z,20.90
2022-09-30T05:37:22.482Z,20.67
2022-09-30T05:39:52.501Z,21.05
2022-09-30T05:42:22.487Z,21.90
2022-09-30T05:44:53.280Z,19.02
2022-09-30T05:47:22.881Z,19.77
2022-09-30T05:49:55.983Z,20.00
2022-09-30T05:52:26.150Z,18.40
2022-09-30T05:55:02.331Z,19.33
2022-09-30T05:57:31.585Z,19.23
2022-09-30T06:00:00.482Z,18.75
2022-09-30T06:02:32.494Z,19.92
2022-09-30T06:05:01.907Z,20.35
2022-09-30T06:07:30.818Z,18.35
2022-09-30T06:09:59.910Z,20.35
2022-09-30T06:12:29.784Z,18.80
2022-09-30T06:14:59.128Z,20.95
2022-09-30T06:17:28.101Z,19.45
2022-09-30T06:19:57.883Z,19.23
2022-09-30T06:22:28.148Z,20.02
2022-09-30T06:24:57.790Z,20.88
2022-09-30T06:27:29.826Z,18.60
2022-09-30T06:30:07.423Z,18.48
2022-09-30T06:32:36.446Z,18.15
2022-09-30T06:35:05.518Z,17.70
2022-09-30T06:37:38.019Z,17.80
2022-09-30T06:40:08.638Z,17.58
2022-09-30T06:42:37.644Z,16.83
2022-09-30T06:45:07.068Z,18.90
2022-09-30T06:47:36.306Z,18.58
2022-09-30T06:50:05.889Z,18.92
2022-09-30T06:52:35.882Z,16.15
2022-09-30T06:55:05.199Z,17.33
2022-09-30T06:57:34.478Z,17.30
2022-09-30T07:00:04.327Z,16.42
2022-09-30T07:02:35.662Z,19.65
2022-09-30T07:05:05.126Z,17.85
2022-09-30T07:07:35.989Z,18.90
2022-09-30T07:10:06.075Z,19.35
2022-09-30T07:12:35.679Z,19.77
2022-09-30T07:15:05.304Z,17.42
2022-09-30T07:17:34.482Z,18.58
2022-09-30T07:20:03.386Z,17.23
2022-09-30T07:22:33.192Z,16.35
2022-09-30T07:25:05.145Z,17.58
2022-09-30T07:27:35.147Z,16.27
2022-09-30T07:30:16.118Z,17.42
2022-09-30T07:32:48.004Z,18.83
2022-09-30T07:35:16.948Z,19.13
2022-09-30T07:37:47.025Z,17.55
2022-09-30T07:40:19.375Z,17.45
2022-09-30T07:42:48.977Z,19.35
2022-09-30T07:45:20.190Z,18.02
2022-09-30T07:47:53.532Z,17.27
2022-09-30T07:50:23.793Z,18.60
2022-09-30T07:52:55.056Z,18.70
2022-09-30T07:55:24.351Z,19.10
2022-09-30T07:57:53.537Z,18.58
2022-09-30T08:00:41.596Z,21.35
2022-09-30T08:03:11.721Z,18.45
2022-09-30T08:05:42.540Z,17.05
2022-09-30T08:08:12.168Z,17.83
2022-09-30T08:10:41.204Z,17.92
2022-09-30T08:13:14.803Z,19.17
2022-09-30T08:15:45.178Z,18.42
2022-09-30T08:18:14.346Z,18.42
2022-09-30T08:20:43.367Z,19.73
2022-09-30T08:23:12.524Z,19.73
2022-09-30T08:25:41.699Z,21.30
2022-09-30T08:28:10.991Z,18.45
2022-09-30T08:30:41.080Z,20.38
2022-09-30T08:33:10.422Z,20.38
2022-09-30T08:35:39.395Z,20.90
2022-09-30T08:38:08.413Z,24.05
2022-09-30T08:40:52.078Z,24.98
2022-09-30T08:43:28.889Z,26.08
2022-09-30T08:46:17.420Z,27.55
2022-09-30T08:48:53.942Z,24.60
2022-09-30T08:51:53.448Z,25.55
2022-09-30T08:54:26.663Z,25.55
2022-09-30T08:56:56.753Z,23.40
2022-09-30T08:59:34.979Z,25.13
2022-09-30T09:02:17.590Z,26.20
2022-09-30T09:04:49.342Z,27.83
2022-09-30T09:07:36.254Z,31.30
2022-09-30T09:10:14.357Z,33.85
2022-09-30T09:13:18.572Z,33.08
2022-09-30T09:15:56.364Z,33.30
2022-09-30T09:18:35.148Z,32.88
2022-09-30T09:21:21.557Z,37.40
2022-09-30T09:23:53.509Z,37.65
2022-09-30T09:26:24.322Z,33.58
2022-09-30T09:29:22.181Z,33.28
2022-09-30T09:31:51.425Z,37.90
2022-09-30T09:34:20.673Z,35.30
2022-09-30T09:37:10.220Z,36.65
2022-09-30T09:39:51.709Z,34.63
2022-09-30T09:42:43.353Z,39.45
2022-09-30T09:45:30.274Z,34.30
2022-09-30T09:48:01.228Z,35.33
2022-09-30T09:50:30.505Z,31.60
2022-09-30T09:53:25.459Z,32.60
2022-09-30T09:56:01.176Z,28.88
2022-09-30T09:58:30.861Z,31.15
2022-09-30T10:01:29.980Z,30.63
2022-09-30T10:04:12.594Z,27.35
2022-09-30T10:06:56.893Z,28.70
2022-09-30T10:09:33.985Z,26.48
2022-09-30T10:12:08.961Z,28.30
2022-09-30T10:15:02.062Z,27.45
2022-09-30T10:17:36.787Z,28.10
2022-09-30T10:20:22.197Z,31.20
2022-09-30T10:22:51.990Z,26.10
2022-09-30T10:25:26.129Z,25.65
2022-09-30T10:28:01.345Z,29.52
2022-09-30T10:30:42.161Z,27.35
2022-09-30T10:33:31.586Z,23.58
2022-09-30T10:36:12.220Z,18.70
2022-09-30T10:39:01.248Z,22.48
2022-09-30T10:41:35.454Z,22.43
2022-09-30T10:44:09.458Z,21.48
2022-09-30T10:46:41.639Z,23.90
2022-09-30T10:51:47.309Z,21.48
2022-09-30T10:54:42.473Z,23.52
2022-09-30T10:57:31.222Z,21.73
2022-09-30T11:00:02.097Z,24.35
2022-09-30T11:02:36.379Z,23.95
2022-09-30T11:05:08.434Z,25.63
2022-09-30T11:07:49.385Z,25.02
2022-09-30T11:10:52.305Z,33.58
2022-09-30T11:13:58.235Z,25.88
2022-09-30T11:17:22.909Z,25.20
2022-09-30T11:20:11.565Z,27.30
2022-09-30T11:22:48.991Z,25.38
2022-09-30T11:25:37.608Z,25.20
2022-09-30T11:28:43.330Z,25.30
2022-09-30T11:31:21.681Z,21.50
2022-09-30T11:33:58.477Z,25.15
2022-09-30T11:36:45.088Z,22.92
2022-09-30T11:39:31.453Z,22.15
2022-09-30T11:42:11.683Z,22.45
2022-09-30T11:44:44.919Z,21.35
2022-09-30T11:47:48.559Z,21.67
2022-09-30T11:50:31.233Z,25.55
2022-09-30T11:53:14.746Z,29.05
2022-09-30T11:56:02.136Z,28.23
2022-09-30T11:58:42.483Z,26.25
2022-09-30T12:01:22.973Z,26.63
2022-09-30T12:04:09.584Z,26.30
2022-09-30T12:06:48.321Z,21.90
2022-09-30T12:09:23.847Z,22.83
2022-09-30T12:12:16.238Z,21.88
2022-09-30T12:14:58.011Z,23.70
2022-09-30T12:17:47.795Z,22.73
2022-09-30T12:20:29.133Z,25.83
2022-09-30T12:23:31.599Z,25.85
2022-09-30T12:26:02.744Z,23.55
2022-09-30T12:29:20.147Z,22.45
2022-09-30T12:32:10.628Z,23.35
2022-09-30T12:35:02.418Z,21.10
2022-09-30T12:37:31.528Z,21.98
2022-09-30T12:40:33.967Z,22.48
2022-09-30T12:46:14.650Z,22.15
2022-09-30T12:48:49.889Z,21.17
2022-09-30T12:51:31.213Z,23.73
2022-09-30T12:54:27.157Z,23.23
2022-09-30T12:57:05.006Z,22.73
2022-09-30T12:59:40.207Z,21.73
2022-09-30T13:02:10.112Z,26.33
2022-09-30T13:04:44.546Z,22.00
2022-09-30T13:07:20.404Z,22.63
2022-09-30T13:10:23.285Z,22.73
2022-09-30T13:13:12.759Z,21.42
2022-09-30T13:15:47.149Z,21.98
2022-09-30T13:18:21.990Z,21.38
2022-09-30T13:20:51.130Z,23.15
2022-09-30T13:23:43.242Z,21.77
2022-09-30T13:26:25.624Z,22.60
2022-09-30T13:31:26.247Z,21.88
2022-09-30T13:34:04.336Z,22.90
2022-09-30T13:36:39.770Z,21.73
2022-09-30T13:39:48.051Z,22.25
2022-09-30T13:42:30.681Z,22.17
2022-09-30T13:45:08.875Z,25.08
2022-09-30T13:47:50.467Z,23.23
2022-09-30T13:50:30.297Z,24.55
2022-09-30T13:53:03.785Z,23.55
2022-09-30T13:55:47.526Z,24.33
2022-09-30T13:58:54.057Z,24.42
2022-09-30T14:01:28.974Z,24.52
2022-09-30T14:04:14.186Z,25.65
2022-09-30T14:06:58.318Z,22.77
2022-09-30T14:09:45.726Z,24.35
2022-09-30T14:12:45.155Z,24.88
2022-09-30T14:15:25.475Z,25.80
2022-09-30T14:18:22.334Z,23.58
2022-09-30T14:21:29.595Z,24.88
2022-09-30T14:24:11.126Z,25.13
2022-09-30T14:27:05.102Z,25.02
2022-09-30T14:29:53.345Z,25.52
2022-09-30T14:32:56.417Z,23.13
2022-09-30T14:35:31.045Z,25.98
2022-09-30T14:38:04.736Z,24.33
2022-09-30T14:40:37.457Z,24.13
2022-09-30T14:43:10.635Z,24.90
2022-09-30T14:45:45.640Z,23.92
2022-09-30T14:48:29.738Z,24.33
2022-09-30T14:51:21.478Z,25.90
2022-09-30T14:53:58.360Z,23.92
2022-09-30T14:56:36.407Z,25.70
2022-09-30T14:59:34.067Z,25.35
2022-09-30T15:02:11.328Z,24.88
2022-09-30T15:04:47.811Z,24.20
2022-09-30T15:07:17.428Z,24.10
2022-09-30T15:09:48.869Z,26.00
2022-09-30T15:12:21.879Z,23.88
2022-09-30T15:15:00.061Z,23.63
2022-09-30T15:17:37.544Z,24.88
2022-09-30T15:20:33.995Z,25.27
2022-09-30T15:23:11.400Z,26.23
2022-09-30T15:25:42.436Z,23.77
2022-09-30T15:28:15.351Z,26.58
2022-09-30T15:30:46.067Z,25.27
2022-09-30T15:33:21.627Z,26.13
2022-09-30T15:35:54.420Z,25.50
2022-09-30T15:38:31.681Z,24.90
2022-09-30T15:41:15.693Z,26.25
2022-09-30T15:43:55.111Z,25.98
2022-09-30T15:46:31.070Z,24.35
2022-09-30T15:49:06.559Z,28.27
2022-09-30T15:51:41.383Z,25.80
2022-09-30T15:54:28.698Z,27.20
2022-09-30T15:56:58.659Z,24.02
2022-09-30T16:00:04.301Z,24.40
2022-09-30T16:02:34.059Z,26.27
2022-09-30T16:05:08.030Z,25.17
2022-09-30T16:07:38.179Z,25.58
2022-09-30T16:10:23.299Z,25.65
2022-09-30T16:15:23.328Z,26.98
2022-09-30T16:17:56.494Z,25.92
2022-09-30T16:20:27.983Z,23.88
2022-09-30T16:23:03.825Z,27.50
2022-09-30T16:25:38.491Z,28.17
2022-09-30T16:28:18.545Z,25.38
2022-09-30T16:30:55.521Z,25.67
2022-09-30T16:33:25.577Z,27.20
2022-09-30T16:35:55.477Z,25.27
2022-09-30T16:38:28.553Z,24.85
2022-09-30T16:40:59.459Z,27.33
2022-09-30T16:43:35.096Z,23.10
2022-09-30T16:46:17.565Z,26.67
2022-09-30T16:48:51.987Z,23.88
2022-09-30T16:51:23.082Z,25.70
2022-09-30T16:53:55.115Z,26.48
2022-09-30T16:56:29.581Z,26.23
2022-09-30T16:59:04.439Z,26.15
2022-09-30T17:04:15.225Z,24.73
2022-09-30T17:06:58.247Z,24.55
2022-09-30T17:09:27.831Z,24.90
2022-09-30T17:11:58.355Z,27.35
2022-09-30T17:14:33.244Z,24.92
2022-09-30T17:17:09.767Z,25.40
2022-09-30T17:19:44.018Z,29.90
2022-09-30T17:22:17.355Z,27.23
2022-09-30T17:24:48.025Z,25.95
2022-09-30T17:27:24.700Z,26.13
2022-09-30T17:29:59.512Z,25.48
2022-09-30T17:32:35.129Z,25.60
2022-09-30T17:35:11.514Z,27.25
2022-09-30T17:37:46.354Z,28.05
2022-09-30T17:40:38.265Z,28.40
2022-09-30T17:43:09.561Z,27.98
2022-09-30T17:45:43.292Z,28.30
2022-09-30T17:48:16.321Z,29.85
2022-09-30T17:50:52.458Z,29.55
2022-09-30T17:56:06.206Z,26.92
2022-09-30T17:58:36.280Z,27.13
2022-09-30T18:01:12.706Z,29.13
2022-09-30T18:03:46.850Z,30.13
2022-09-30T18:06:21.712Z,30.35
2022-09-30T18:09:13.483Z,29.48
2022-09-30T18:11:44.604Z,29.63
2022-09-30T18:14:15.448Z,29.73
2022-09-30T18:16:46.752Z,30.42
2022-09-30T18:19:18.970Z,30.42
2022-09-30T18:24:20.751Z,29.08
2022-09-30T18:26:50.637Z,30.00
2022-09-30T18:29:22.358Z,30.15
2022-09-30T18:31:53.262Z,30.75
2022-09-30T18:34:26.319Z,31.17
2022-09-30T18:36:55.996Z,31.48
2022-09-30T18:39:25.935Z,32.50
2022-09-30T18:41:57.656Z,32.15
2022-09-30T18:44:30.354Z,32.22
2022-09-30T18:47:01.717Z,31.73
2022-09-30T18:49:31.156Z,29.88
2022-09-30T18:52:00.799Z,28.80
2022-09-30T18:54:30.933Z,31.52
2022-09-30T18:57:01.015Z,32.22
2022-09-30T18:59:30.714Z,32.60
2022-09-30T19:02:01.493Z,35.05
2022-09-30T19:04:30.770Z,33.08
2022-09-30T19:06:59.961Z,33.72
2022-09-30T19:09:29.522Z,28.92
2022-09-30T19:11:58.522Z,31.90
2022-09-30T19:14:31.866Z,33.35
2022-09-30T19:17:01.305Z,32.65
2022-09-30T19:19:30.519Z,33.60
2022-09-30T19:22:02.982Z,32.92
2022-09-30T19:27:00.719Z,30.95
2022-09-30T19:29:30.430Z,32.33
2022-09-30T19:32:02.681Z,33.50
2022-09-30T19:34:32.653Z,33.00
2022-09-30T19:37:01.763Z,31.98
2022-09-30T19:39:43.312Z,34.17
2022-09-30T19:42:15.519Z,34.78
2022-09-30T19:44:44.606Z,31.80
2022-09-30T19:47:13.715Z,35.78
2022-09-30T19:49:43.806Z,36.33
2022-09-30T19:52:20.908Z,37.83
2022-09-30T19:54:51.971Z,34.80
2022-09-30T19:57:20.990Z,34.65
2022-09-30T19:59:56.568Z,36.03
2022-09-30T20:02:26.503Z,34.88
2022-09-30T20:04:55.817Z,35.08
2022-09-30T20:07:25.036Z,34.80
2022-09-30T20:09:57.981Z,36.80
2022-09-30T20:12:27.324Z,35.42
2022-09-30T20:15:14.866Z,36.40
2022-09-30T20:17:44.529Z,39.17
2022-09-30T20:20:32.042Z,37.65
2022-09-30T20:23:04.711Z,36.50
2022-09-30T20:25:36.173Z,37.67
2022-09-30T20:28:07.213Z,38.43
2022-09-30T20:30:46.450Z,37.88
2022-09-30T20:33:27.319Z,38.50
2022-09-30T20:35:56.416Z,37.00
2022-09-30T20:38:25.846Z,37.97
2022-09-30T20:40:59.798Z,37.72
2022-09-30T20:43:33.429Z,37.30
2022-09-30T20:46:06.699Z,37.35
2022-09-30T20:48:40.961Z,38.60
2022-09-30T20:51:13.390Z,40.72
2022-09-30T20:53:48.702Z,37.25
2022-09-30T20:56:18.548Z,39.30
2022-09-30T20:58:47.693Z,38.25
2022-09-30T21:01:20.710Z,39.10
2022-09-30T21:03:51.991Z,40.13
2022-09-30T21:06:31.394Z,41.65
2022-09-30T21:09:04.298Z,42.15
2022-09-30T21:11:34.559Z,44.15
2022-09-30T21:14:03.872Z,43.78
2022-09-30T21:16:32.981Z,46.83
2022-09-30T21:19:02.066Z,42.20
2022-09-30T21:21:31.444Z,42.35
2022-09-30T21:24:01.138Z,45.90
2022-09-30T21:26:30.910Z,42.83
2022-09-30T21:29:01.051Z,44.97
2022-09-30T21:31:31.582Z,43.80
2022-09-30T21:34:02.014Z,43.03
2022-09-30T21:36:33.312Z,43.35
2022-09-30T21:39:07.072Z,43.47
2022-09-30T21:41:36.889Z,45.03
2022-09-30T21:44:05.946Z,44.63
2022-09-30T21:46:36.782Z,46.15
2022-09-30T21:49:08.671Z,45.63
2022-09-30T21:51:38.226Z,44.60
2022-09-30T21:54:07.757Z,45.80
2022-09-30T21:56:37.507Z,46.22
2022-09-30T21:59:07.134Z,45.78
2022-09-30T22:01:37.711Z,47.63
2022-09-30T22:04:07.874Z,45.47
2022-09-30T22:06:36.918Z,46.38
2022-09-30T22:09:06.697Z,46.20
2022-09-30T22:11:37.483Z,44.80
2022-09-30T22:14:07.305Z,45.17
2022-09-30T22:16:36.494Z,41.88
2022-09-30T22:19:08.303Z,43.65
2022-09-30T22:21:39.782Z,42.95
2022-09-30T22:24:12.785Z,45.17
2022-09-30T22:26:42.942Z,45.33
2022-09-30T22:29:13.520Z,45.45
2022-09-30T22:31:43.105Z,44.35
2022-09-30T22:34:33.381Z,44.85
2022-09-30T22:37:21.141Z,43.67
2022-09-30T22:39:50.171Z,45.15
2022-09-30T22:42:19.294Z,44.00
2022-09-30T22:44:49.039Z,44.58
2022-09-30T22:47:18.794Z,44.53
2022-09-30T22:49:50.913Z,46.13
2022-09-30T22:52:21.659Z,45.38
2022-09-30T22:54:50.690Z,44.03
2022-09-30T22:57:19.543Z,45.00
2022-09-30T22:59:48.802Z,46.22
2022-09-30T23:02:18.055Z,45.90
2022-09-30T23:04:47.807Z,49.40
2022-09-30T23:07:16.889Z,48.22
2022-09-30T23:09:48.852Z,43.53
2022-09-30T23:12:19.367Z,45.35
2022-09-30T23:14:48.803Z,47.67
2022-09-30T23:17:17.882Z,46.15
2022-09-30T23:19:47.135Z,44.28
2022-09-30T23:22:16.245Z,47.17
2022-09-30T23:24:45.174Z,46.53
2022-09-30T23:27:14.262Z,45.38
2022-09-30T23:29:43.227Z,45.75
2022-09-30T23:32:12.222Z,48.97
2022-09-30T23:34:41.635Z,45.05
2022-09-30T23:37:10.708Z,45.80
2022-09-30T23:39:40.628Z,44.92
2022-09-30T23:42:09.515Z,49.00
2022-09-30T23:44:38.465Z,44.63
2022-09-30T23:47:19.467Z,47.53
2022-09-30T23:49:48.712Z,47.22
2022-09-30T23:52:18.776Z,47.30
2022-09-30T23:54:48.213Z,44.97
2022-09-30T23:57:17.019Z,45.50
2022-09-30T23:59:46.263Z,46.17
